sensor_id;sensor_type;location;lat;lon;timestamp;P1;durP1;ratioP1;P2;durP2;ratioP2
18780;SDS011;9519;51.890;8.970;2022-11-04T00:05:06;8.97;;;2.80;;
18780;SDS011;9519;51.890;8.970;2022-11-04T00:10:11;6.97;;;2.50;;
18780;SDS011;9519;51.890;8.970;2022-11-04T00:15:13;4.40;;;2.70;;
18780;SDS011;9519;51.890;8.970;2022-11-04T00:20:34;4.10;;;2.00;;
18780;SDS011;9519;51.890;8.970;2022-11-04T00:25:54;3.50;;;2.00;;
18780;SDS011;9519;51.890;8.970;2022-11-04T00:31:14;4.00;;;1.90;;
18780;SDS011;9519;51.890;8.970;2022-11-04T00:36:35;3.33;;;1.70;;
18780;SDS011;9519;51.890;8.970;2022-11-04T00:41:37;2.53;;;1.50;;
18780;SDS011;9519;51.890;8.970;2022-11-04T00:46:39;3.00;;;1.60;;
18780;SDS011;9519;51.890;8.970;2022-11-04T00:51:42;2.37;;;1.47;;
18780;SDS011;9519;51.890;8.970;2022-11-04T00:56:47;2.47;;;1.13;;
18780;SDS011;9519;51.890;8.970;2022-11-04T01:01:49;2.33;;;1.33;;
18780;SDS011;9519;51.890;8.970;2022-11-04T01:06:53;2.57;;;1.43;;
18780;SDS011;9519;51.890;8.970;2022-11-04T01:11:55;6.10;;;1.60;;
18780;SDS011;9519;51.890;8.970;2022-11-04T01:16:57;3.30;;;1.63;;
18780;SDS011;9519;51.890;8.970;2022-11-04T01:22:03;2.60;;;1.50;;
18780;SDS011;9519;51.890;8.970;2022-11-04T01:27:05;5.37;;;1.77;;
18780;SDS011;9519;51.890;8.970;2022-11-04T01:32:07;4.20;;;2.03;;
18780;SDS011;9519;51.890;8.970;2022-11-04T01:37:11;3.80;;;1.70;;
18780;SDS011;9519;51.890;8.970;2022-11-04T01:42:13;2.63;;;1.77;;
18780;SDS011;9519;51.890;8.970;2022-11-04T01:47:16;2.80;;;1.77;;
18780;SDS011;9519;51.890;8.970;2022-11-04T01:52:25;2.90;;;1.70;;
18780;SDS011;9519;51.890;8.970;2022-11-04T01:57:33;3.07;;;1.90;;
18780;SDS011;9519;51.890;8.970;2022-11-04T02:02:45;3.60;;;2.10;;
18780;SDS011;9519;51.890;8.970;2022-11-04T02:07:56;4.40;;;1.90;;
18780;SDS011;9519;51.890;8.970;2022-11-04T02:13:01;3.07;;;1.93;;
18780;SDS011;9519;51.890;8.970;2022-11-04T02:29:50;4.93;;;3.37;;
18780;SDS011;9519;51.890;8.970;2022-11-04T02:35:07;5.10;;;3.33;;
18780;SDS011;9519;51.890;8.970;2022-11-04T02:40:24;8.07;;;3.87;;
18780;SDS011;9519;51.890;8.970;2022-11-04T02:45:41;5.23;;;3.63;;
18780;SDS011;9519;51.890;8.970;2022-11-04T02:50:48;6.70;;;3.30;;
18780;SDS011;9519;51.890;8.970;2022-11-04T02:55:56;6.53;;;3.23;;
18780;SDS011;9519;51.890;8.970;2022-11-04T03:01:03;5.93;;;3.40;;
18780;SDS011;9519;51.890;8.970;2022-11-04T03:06:09;5.50;;;3.13;;
18780;SDS011;9519;51.890;8.970;2022-11-04T03:11:17;5.40;;;3.63;;
18780;SDS011;9519;51.890;8.970;2022-11-04T03:16:25;6.30;;;3.60;;
18780;SDS011;9519;51.890;8.970;2022-11-04T03:21:34;5.43;;;3.57;;
18780;SDS011;9519;51.890;8.970;2022-11-04T03:26:48;6.97;;;3.63;;
18780;SDS011;9519;51.890;8.970;2022-11-04T03:32:03;6.37;;;3.87;;
18780;SDS011;9519;51.890;8.970;2022-11-04T03:37:13;7.37;;;3.80;;
18780;SDS011;9519;51.890;8.970;2022-11-04T03:42:16;4.20;;;3.13;;
18780;SDS011;9519;51.890;8.970;2022-11-04T03:47:23;5.40;;;3.17;;
18780;SDS011;9519;51.890;8.970;2022-11-04T03:52:29;7.27;;;3.10;;
18780;SDS011;9519;51.890;8.970;2022-11-04T03:57:37;5.40;;;3.57;;
18780;SDS011;9519;51.890;8.970;2022-11-04T04:03:09;7.40;;;4.13;;
18780;SDS011;9519;51.890;8.970;2022-11-04T04:08:19;6.00;;;4.27;;
18780;SDS011;9519;51.890;8.970;2022-11-04T04:13:36;5.27;;;3.83;;
18780;SDS011;9519;51.890;8.970;2022-11-04T04:18:47;7.00;;;5.07;;
18780;SDS011;9519;51.890;8.970;2022-11-04T04:23:54;8.80;;;5.10;;
18780;SDS011;9519;51.890;8.970;2022-11-04T04:29:19;7.93;;;4.70;;
18780;SDS011;9519;51.890;8.970;2022-11-04T04:34:24;5.87;;;4.00;;
18780;SDS011;9519;51.890;8.970;2022-11-04T04:39:34;6.87;;;3.90;;
18780;SDS011;9519;51.890;8.970;2022-11-04T04:45:00;5.80;;;3.60;;
18780;SDS011;9519;51.890;8.970;2022-11-04T04:50:06;5.37;;;3.50;;
18780;SDS011;9519;51.890;8.970;2022-11-04T04:55:10;5.27;;;3.03;;
18780;SDS011;9519;51.890;8.970;2022-11-04T05:00:15;6.87;;;3.23;;
18780;SDS011;9519;51.890;8.970;2022-11-04T05:05:22;6.43;;;2.70;;
18780;SDS011;9519;51.890;8.970;2022-11-04T05:10:24;5.93;;;2.87;;
18780;SDS011;9519;51.890;8.970;2022-11-04T05:15:26;8.30;;;2.97;;
18780;SDS011;9519;51.890;8.970;2022-11-04T05:20:30;7.93;;;2.97;;
18780;SDS011;9519;51.890;8.970;2022-11-04T05:25:35;8.67;;;4.00;;
18780;SDS011;9519;51.890;8.970;2022-11-04T05:30:38;8.27;;;4.63;;
18780;SDS011;9519;51.890;8.970;2022-11-04T05:35:42;8.77;;;4.03;;
18780;SDS011;9519;51.890;8.970;2022-11-04T05:40:44;32.47;;;12.67;;
18780;SDS011;9519;51.890;8.970;2022-11-04T05:45:46;10.60;;;4.90;;
18780;SDS011;9519;51.890;8.970;2022-11-04T05:50:49;12.57;;;5.27;;
18780;SDS011;9519;51.890;8.970;2022-11-04T05:55:52;40.23;;;16.77;;
18780;SDS011;9519;51.890;8.970;2022-11-04T06:00:54;8.93;;;4.70;;
18780;SDS011;9519;51.890;8.970;2022-11-04T06:06:13;10.47;;;5.10;;
18780;SDS011;9519;51.890;8.970;2022-11-04T06:11:15;9.60;;;4.97;;
18780;SDS011;9519;51.890;8.970;2022-11-04T06:16:18;12.30;;;4.73;;
18780;SDS011;9519;51.890;8.970;2022-11-04T06:21:24;9.63;;;4.50;;
18780;SDS011;9519;51.890;8.970;2022-11-04T06:26:29;11.73;;;5.03;;
18780;SDS011;9519;51.890;8.970;2022-11-04T06:31:31;10.00;;;4.37;;
18780;SDS011;9519;51.890;8.970;2022-11-04T06:36:34;13.63;;;5.00;;
18780;SDS011;9519;51.890;8.970;2022-11-04T06:41:36;12.37;;;5.50;;
18780;SDS011;9519;51.890;8.970;2022-11-04T06:46:39;9.90;;;4.33;;
18780;SDS011;9519;51.890;8.970;2022-11-04T06:51:44;13.00;;;4.47;;
18780;SDS011;9519;51.890;8.970;2022-11-04T06:56:48;11.80;;;4.50;;
18780;SDS011;9519;51.890;8.970;2022-11-04T07:01:50;8.87;;;3.87;;
18780;SDS011;9519;51.890;8.970;2022-11-04T07:06:53;11.10;;;5.07;;
18780;SDS011;9519;51.890;8.970;2022-11-04T07:11:55;11.40;;;5.40;;
18780;SDS011;9519;51.890;8.970;2022-11-04T07:16:58;13.50;;;4.90;;
18780;SDS011;9519;51.890;8.970;2022-11-04T07:22:01;11.20;;;4.70;;
18780;SDS011;9519;51.890;8.970;2022-11-04T07:27:03;10.47;;;4.63;;
18780;SDS011;9519;51.890;8.970;2022-11-04T07:32:06;11.93;;;4.43;;
18780;SDS011;9519;51.890;8.970;2022-11-04T07:37:10;7.70;;;4.17;;
18780;SDS011;9519;51.890;8.970;2022-11-04T07:42:12;13.17;;;3.73;;
18780;SDS011;9519;51.890;8.970;2022-11-04T07:47:14;9.07;;;3.47;;
18780;SDS011;9519;51.890;8.970;2022-11-04T07:52:17;13.00;;;4.00;;
18780;SDS011;9519;51.890;8.970;2022-11-04T07:57:20;11.47;;;3.97;;
18780;SDS011;9519;51.890;8.970;2022-11-04T08:02:22;9.27;;;2.40;;
18780;SDS011;9519;51.890;8.970;2022-11-04T08:07:25;10.47;;;3.17;;
18780;SDS011;9519;51.890;8.970;2022-11-04T08:12:28;11.57;;;3.00;;
18780;SDS011;9519;51.890;8.970;2022-11-04T08:17:31;7.43;;;3.03;;
18780;SDS011;9519;51.890;8.970;2022-11-04T08:22:34;8.80;;;2.83;;
18780;SDS011;9519;51.890;8.970;2022-11-04T08:27:37;14.77;;;3.73;;
18780;SDS011;9519;51.890;8.970;2022-11-04T08:32:39;7.83;;;2.60;;
18780;SDS011;9519;51.890;8.970;2022-11-04T08:37:42;10.60;;;2.90;;
18780;SDS011;9519;51.890;8.970;2022-11-04T08:42:44;11.13;;;3.00;;
18780;SDS011;9519;51.890;8.970;2022-11-04T08:47:46;11.27;;;2.43;;
18780;SDS011;9519;51.890;8.970;2022-11-04T08:52:50;9.00;;;2.47;;
18780;SDS011;9519;51.890;8.970;2022-11-04T08:57:52;10.40;;;2.73;;
18780;SDS011;9519;51.890;8.970;2022-11-04T09:03:07;7.43;;;2.30;;
18780;SDS011;9519;51.890;8.970;2022-11-04T09:08:10;7.90;;;2.00;;
18780;SDS011;9519;51.890;8.970;2022-11-04T09:13:13;10.30;;;2.40;;
18780;SDS011;9519;51.890;8.970;2022-11-04T09:18:16;5.83;;;1.90;;
18780;SDS011;9519;51.890;8.970;2022-11-04T09:23:20;9.63;;;2.60;;
18780;SDS011;9519;51.890;8.970;2022-11-04T09:28:22;9.20;;;2.47;;
18780;SDS011;9519;51.890;8.970;2022-11-04T09:33:24;8.57;;;2.13;;
18780;SDS011;9519;51.890;8.970;2022-11-04T09:38:27;8.30;;;2.27;;
18780;SDS011;9519;51.890;8.970;2022-11-04T09:43:32;6.30;;;1.73;;
18780;SDS011;9519;51.890;8.970;2022-11-04T09:48:49;8.27;;;2.03;;
18780;SDS011;9519;51.890;8.970;2022-11-04T09:53:57;12.47;;;2.37;;
18780;SDS011;9519;51.890;8.970;2022-11-04T09:59:05;12.30;;;3.30;;
18780;SDS011;9519;51.890;8.970;2022-11-04T10:04:20;9.63;;;2.20;;
18780;SDS011;9519;51.890;8.970;2022-11-04T10:09:44;12.90;;;3.07;;
18780;SDS011;9519;51.890;8.970;2022-11-04T10:15:12;9.13;;;2.90;;
18780;SDS011;9519;51.890;8.970;2022-11-04T10:20:51;12.53;;;3.90;;
18780;SDS011;9519;51.890;8.970;2022-11-04T10:26:08;12.10;;;3.37;;
18780;SDS011;9519;51.890;8.970;2022-11-04T10:31:18;10.80;;;3.10;;
18780;SDS011;9519;51.890;8.970;2022-11-04T10:36:20;13.63;;;3.70;;
18780;SDS011;9519;51.890;8.970;2022-11-04T10:41:29;12.60;;;3.90;;
18780;SDS011;9519;51.890;8.970;2022-11-04T10:46:40;13.20;;;3.60;;
18780;SDS011;9519;51.890;8.970;2022-11-04T10:51:55;13.83;;;3.20;;
18780;SDS011;9519;51.890;8.970;2022-11-04T10:56:59;12.10;;;3.30;;
18780;SDS011;9519;51.890;8.970;2022-11-04T11:02:02;12.07;;;4.07;;
18780;SDS011;9519;51.890;8.970;2022-11-04T11:07:05;13.10;;;3.63;;
18780;SDS011;9519;51.890;8.970;2022-11-04T11:12:18;10.90;;;3.30;;
18780;SDS011;9519;51.890;8.970;2022-11-04T11:17:34;10.77;;;3.93;;
18780;SDS011;9519;51.890;8.970;2022-11-04T11:22:42;8.80;;;3.53;;
18780;SDS011;9519;51.890;8.970;2022-11-04T11:27:48;10.30;;;4.17;;
18780;SDS011;9519;51.890;8.970;2022-11-04T11:32:54;8.30;;;3.43;;
18780;SDS011;9519;51.890;8.970;2022-11-04T11:38:03;11.23;;;4.20;;
18780;SDS011;9519;51.890;8.970;2022-11-04T11:43:14;11.67;;;4.20;;
18780;SDS011;9519;51.890;8.970;2022-11-04T11:48:26;13.20;;;4.17;;
18780;SDS011;9519;51.890;8.970;2022-11-04T11:53:31;8.83;;;4.47;;
18780;SDS011;9519;51.890;8.970;2022-11-04T11:58:40;11.63;;;4.57;;
18780;SDS011;9519;51.890;8.970;2022-11-04T12:03:50;9.50;;;5.00;;
18780;SDS011;9519;51.890;8.970;2022-11-04T12:09:06;10.70;;;4.90;;
18780;SDS011;9519;51.890;8.970;2022-11-04T12:14:20;10.87;;;5.00;;
18780;SDS011;9519;51.890;8.970;2022-11-04T12:19:39;10.17;;;4.60;;
18780;SDS011;9519;51.890;8.970;2022-11-04T12:24:58;9.73;;;4.70;;
18780;SDS011;9519;51.890;8.970;2022-11-04T12:30:17;13.83;;;5.20;;
18780;SDS011;9519;51.890;8.970;2022-11-04T12:35:28;14.00;;;6.10;;
18780;SDS011;9519;51.890;8.970;2022-11-04T12:40:48;12.57;;;5.97;;
18780;SDS011;9519;51.890;8.970;2022-11-04T12:46:07;12.13;;;5.57;;
18780;SDS011;9519;51.890;8.970;2022-11-04T12:51:20;10.57;;;4.47;;
18780;SDS011;9519;51.890;8.970;2022-11-04T12:56:37;11.93;;;4.43;;
18780;SDS011;9519;51.890;8.970;2022-11-04T13:01:46;12.20;;;4.57;;
18780;SDS011;9519;51.890;8.970;2022-11-04T13:06:55;11.70;;;4.77;;
18780;SDS011;9519;51.890;8.970;2022-11-04T13:12:04;11.33;;;4.40;;
18780;SDS011;9519;51.890;8.970;2022-11-04T13:17:14;11.20;;;4.47;;
18780;SDS011;9519;51.890;8.970;2022-11-04T13:22:23;8.10;;;3.70;;
18780;SDS011;9519;51.890;8.970;2022-11-04T13:27:32;12.47;;;3.90;;
18780;SDS011;9519;51.890;8.970;2022-11-04T13:32:42;10.73;;;3.90;;
18780;SDS011;9519;51.890;8.970;2022-11-04T13:37:56;10.53;;;3.57;;
18780;SDS011;9519;51.890;8.970;2022-11-04T13:43:10;7.13;;;3.20;;
18780;SDS011;9519;51.890;8.970;2022-11-04T13:48:51;12.40;;;3.30;;
18780;SDS011;9519;51.890;8.970;2022-11-04T13:54:00;10.07;;;2.87;;
18780;SDS011;9519;51.890;8.970;2022-11-04T13:59:16;9.17;;;2.50;;
18780;SDS011;9519;51.890;8.970;2022-11-04T14:04:28;12.07;;;2.87;;
18780;SDS011;9519;51.890;8.970;2022-11-04T14:14:54;10.83;;;3.80;;
18780;SDS011;9519;51.890;8.970;2022-11-04T14:20:22;6.87;;;3.07;;
18780;SDS011;9519;51.890;8.970;2022-11-04T14:25:33;10.90;;;3.57;;
18780;SDS011;9519;51.890;8.970;2022-11-04T14:30:45;7.87;;;3.10;;
18780;SDS011;9519;51.890;8.970;2022-11-04T14:35:52;12.70;;;4.63;;
18780;SDS011;9519;51.890;8.970;2022-11-04T14:41:10;12.47;;;3.43;;
18780;SDS011;9519;51.890;8.970;2022-11-04T14:46:22;9.83;;;3.20;;
18780;SDS011;9519;51.890;8.970;2022-11-04T14:51:31;10.17;;;3.50;;
18780;SDS011;9519;51.890;8.970;2022-11-04T14:56:43;9.10;;;3.60;;
18780;SDS011;9519;51.890;8.970;2022-11-04T15:01:46;12.10;;;3.63;;
18780;SDS011;9519;51.890;8.970;2022-11-04T15:06:54;9.03;;;3.67;;
18780;SDS011;9519;51.890;8.970;2022-11-04T15:11:59;10.80;;;4.10;;
18780;SDS011;9519;51.890;8.970;2022-11-04T15:17:31;9.17;;;3.93;;
18780;SDS011;9519;51.890;8.970;2022-11-04T15:22:36;13.23;;;4.20;;
18780;SDS011;9519;51.890;8.970;2022-11-04T15:27:46;9.50;;;4.00;;
18780;SDS011;9519;51.890;8.970;2022-11-04T15:32:52;14.50;;;7.60;;
18780;SDS011;9519;51.890;8.970;2022-11-04T15:37:58;13.70;;;7.67;;
18780;SDS011;9519;51.890;8.970;2022-11-04T15:43:02;13.93;;;6.33;;
18780;SDS011;9519;51.890;8.970;2022-11-04T15:48:26;13.10;;;5.63;;
18780;SDS011;9519;51.890;8.970;2022-11-04T15:53:32;15.23;;;7.37;;
18780;SDS011;9519;51.890;8.970;2022-11-04T15:58:46;10.40;;;4.67;;
18780;SDS011;9519;51.890;8.970;2022-11-04T16:03:50;18.00;;;10.33;;
18780;SDS011;9519;51.890;8.970;2022-11-04T16:09:05;15.57;;;8.03;;
18780;SDS011;9519;51.890;8.970;2022-11-04T16:14:25;14.23;;;5.57;;
18780;SDS011;9519;51.890;8.970;2022-11-04T16:19:30;16.33;;;8.67;;
18780;SDS011;9519;51.890;8.970;2022-11-04T16:24:35;18.33;;;9.17;;
18780;SDS011;9519;51.890;8.970;2022-11-04T16:29:40;17.30;;;13.07;;
18780;SDS011;9519;51.890;8.970;2022-11-04T16:34:43;13.03;;;7.23;;
18780;SDS011;9519;51.890;8.970;2022-11-04T16:39:48;13.53;;;5.43;;
18780;SDS011;9519;51.890;8.970;2022-11-04T16:44:51;15.70;;;10.97;;
18780;SDS011;9519;51.890;8.970;2022-11-04T16:49:59;12.97;;;5.50;;
18780;SDS011;9519;51.890;8.970;2022-11-04T16:55:04;8.60;;;5.53;;
18780;SDS011;9519;51.890;8.970;2022-11-04T17:00:19;13.43;;;10.30;;
18780;SDS011;9519;51.890;8.970;2022-11-04T17:05:23;12.90;;;6.30;;
18780;SDS011;9519;51.890;8.970;2022-11-04T17:10:27;14.27;;;5.37;;
18780;SDS011;9519;51.890;8.970;2022-11-04T17:15:29;16.23;;;7.97;;
18780;SDS011;9519;51.890;8.970;2022-11-04T17:20:32;12.57;;;5.80;;
18780;SDS011;9519;51.890;8.970;2022-11-04T17:25:36;13.60;;;5.00;;
18780;SDS011;9519;51.890;8.970;2022-11-04T17:30:38;15.53;;;5.73;;
18780;SDS011;9519;51.890;8.970;2022-11-04T17:35:41;13.00;;;6.33;;
18780;SDS011;9519;51.890;8.970;2022-11-04T17:40:49;10.97;;;5.53;;
18780;SDS011;9519;51.890;8.970;2022-11-04T17:46:05;8.67;;;4.50;;
18780;SDS011;9519;51.890;8.970;2022-11-04T17:51:25;12.13;;;7.43;;
18780;SDS011;9519;51.890;8.970;2022-11-04T17:56:29;6.20;;;3.77;;
18780;SDS011;9519;51.890;8.970;2022-11-04T18:01:32;8.37;;;3.80;;
18780;SDS011;9519;51.890;8.970;2022-11-04T18:06:36;6.93;;;3.10;;
18780;SDS011;9519;51.890;8.970;2022-11-04T18:11:40;6.93;;;3.20;;
18780;SDS011;9519;51.890;8.970;2022-11-04T18:17:09;7.53;;;3.80;;
18780;SDS011;9519;51.890;8.970;2022-11-04T18:22:11;9.13;;;3.80;;
18780;SDS011;9519;51.890;8.970;2022-11-04T18:27:15;7.27;;;3.73;;
18780;SDS011;9519;51.890;8.970;2022-11-04T18:32:17;11.60;;;3.70;;
18780;SDS011;9519;51.890;8.970;2022-11-04T18:37:20;7.13;;;3.20;;
18780;SDS011;9519;51.890;8.970;2022-11-04T18:42:24;9.47;;;3.40;;
18780;SDS011;9519;51.890;8.970;2022-11-04T18:47:26;7.80;;;5.57;;
18780;SDS011;9519;51.890;8.970;2022-11-04T18:52:28;13.63;;;7.77;;
18780;SDS011;9519;51.890;8.970;2022-11-04T18:57:32;18.10;;;12.47;;
18780;SDS011;9519;51.890;8.970;2022-11-04T19:02:34;15.60;;;14.03;;
18780;SDS011;9519;51.890;8.970;2022-11-04T19:07:37;14.77;;;10.60;;
18780;SDS011;9519;51.890;8.970;2022-11-04T19:12:42;18.80;;;16.07;;
18780;SDS011;9519;51.890;8.970;2022-11-04T19:18:02;8.83;;;5.90;;
18780;SDS011;9519;51.890;8.970;2022-11-04T19:23:04;14.93;;;6.47;;
18780;SDS011;9519;51.890;8.970;2022-11-04T19:28:09;10.50;;;6.43;;
18780;SDS011;9519;51.890;8.970;2022-11-04T19:33:15;9.87;;;6.57;;
18780;SDS011;9519;51.890;8.970;2022-11-04T19:38:17;8.20;;;5.13;;
18780;SDS011;9519;51.890;8.970;2022-11-04T19:43:22;13.53;;;7.70;;
18780;SDS011;9519;51.890;8.970;2022-11-04T19:48:24;12.37;;;6.87;;
18780;SDS011;9519;51.890;8.970;2022-11-04T19:53:26;9.47;;;6.50;;
18780;SDS011;9519;51.890;8.970;2022-11-04T19:58:30;11.33;;;7.03;;
18780;SDS011;9519;51.890;8.970;2022-11-04T20:03:32;10.33;;;6.50;;
18780;SDS011;9519;51.890;8.970;2022-11-04T20:08:34;9.07;;;6.23;;
18780;SDS011;9519;51.890;8.970;2022-11-04T20:13:41;13.90;;;11.23;;
18780;SDS011;9519;51.890;8.970;2022-11-04T20:18:49;11.47;;;8.63;;
18780;SDS011;9519;51.890;8.970;2022-11-04T20:23:56;10.63;;;7.23;;
18780;SDS011;9519;51.890;8.970;2022-11-04T20:29:03;10.60;;;6.37;;
18780;SDS011;9519;51.890;8.970;2022-11-04T20:34:06;11.93;;;7.63;;
18780;SDS011;9519;51.890;8.970;2022-11-04T20:39:12;11.60;;;7.07;;
18780;SDS011;9519;51.890;8.970;2022-11-04T20:44:18;12.70;;;7.10;;
18780;SDS011;9519;51.890;8.970;2022-11-04T20:49:21;14.87;;;8.03;;
18780;SDS011;9519;51.890;8.970;2022-11-04T20:54:26;14.10;;;7.70;;
18780;SDS011;9519;51.890;8.970;2022-11-04T20:59:29;14.57;;;8.33;;
18780;SDS011;9519;51.890;8.970;2022-11-04T21:04:31;17.67;;;9.03;;
18780;SDS011;9519;51.890;8.970;2022-11-04T21:09:35;14.83;;;9.60;;
18780;SDS011;9519;51.890;8.970;2022-11-04T21:14:39;18.00;;;9.83;;
18780;SDS011;9519;51.890;8.970;2022-11-04T21:19:41;15.67;;;9.97;;
18780;SDS011;9519;51.890;8.970;2022-11-04T21:24:43;16.10;;;10.77;;
18780;SDS011;9519;51.890;8.970;2022-11-04T21:29:47;15.83;;;10.63;;
18780;SDS011;9519;51.890;8.970;2022-11-04T21:34:49;22.53;;;11.77;;
18780;SDS011;9519;51.890;8.970;2022-11-04T21:39:52;14.27;;;10.33;;
18780;SDS011;9519;51.890;8.970;2022-11-04T21:44:55;17.67;;;11.20;;
18780;SDS011;9519;51.890;8.970;2022-11-04T21:49:58;16.00;;;10.63;;
18780;SDS011;9519;51.890;8.970;2022-11-04T21:55:00;17.40;;;12.17;;
18780;SDS011;9519;51.890;8.970;2022-11-04T22:00:03;21.13;;;13.53;;
18780;SDS011;9519;51.890;8.970;2022-11-04T22:05:09;22.27;;;13.23;;
18780;SDS011;9519;51.890;8.970;2022-11-04T22:10:11;20.83;;;12.00;;
18780;SDS011;9519;51.890;8.970;2022-11-04T22:15:15;18.13;;;12.20;;
18780;SDS011;9519;51.890;8.970;2022-11-04T22:20:37;21.07;;;12.70;;
18780;SDS011;9519;51.890;8.970;2022-11-04T22:25:39;20.03;;;11.03;;
18780;SDS011;9519;51.890;8.970;2022-11-04T22:30:43;19.40;;;12.37;;
18780;SDS011;9519;51.890;8.970;2022-11-04T22:35:45;22.10;;;12.60;;
18780;SDS011;9519;51.890;8.970;2022-11-04T22:40:51;20.17;;;12.03;;
18780;SDS011;9519;51.890;8.970;2022-11-04T22:45:56;16.67;;;9.03;;
18780;SDS011;9519;51.890;8.970;2022-11-04T22:51:05;14.90;;;8.00;;
18780;SDS011;9519;51.890;8.970;2022-11-04T22:56:09;16.17;;;7.90;;
18780;SDS011;9519;51.890;8.970;2022-11-04T23:01:14;15.03;;;7.93;;
18780;SDS011;9519;51.890;8.970;2022-11-04T23:06:17;20.27;;;9.13;;
18780;SDS011;9519;51.890;8.970;2022-11-04T23:11:20;15.77;;;9.50;;
18780;SDS011;9519;51.890;8.970;2022-11-04T23:16:45;12.30;;;8.87;;
18780;SDS011;9519;51.890;8.970;2022-11-04T23:22:07;18.80;;;8.80;;
18780;SDS011;9519;51.890;8.970;2022-11-04T23:27:27;14.43;;;8.00;;
18780;SDS011;9519;51.890;8.970;2022-11-04T23:32:48;16.03;;;8.20;;
18780;SDS011;9519;51.890;8.970;2022-11-04T23:37:55;14.73;;;7.90;;
18780;SDS011;9519;51.890;8.970;2022-11-04T23:42:58;15.57;;;8.30;;
18780;SDS011;9519;51.890;8.970;2022-11-04T23:48:01;17.17;;;7.33;;
18780;SDS011;9519;51.890;8.970;2022-11-04T23:53:21;15.77;;;8.10;;
18780;SDS011;9519;51.890;8.970;2022-11-04T23:58:43;14.63;;;7.57;;
